Time;durP1;ratioP1;P1;durP2;ratioP2;P2;SDS_P1;SDS_P2;PMS_P1;PMS_P2;Temp;Humidity;BMP_temperature;BMP_pressure;BME280_temperature;BME280_humidity;BME280_pressure;Samples;Min_cycle;Max_cycle;Signal;HPM_P1;HPM_P2
2021/04/01 00:00:07;;;;;;;29.67;17.45;;;;;;;14.39;27.62;101298.34;4978051;28;97791;-76
2021/04/01 00:02:34;;;;;;;24.63;16.02;;;;;;;14.38;27.47;101303.69;4961765;28;99004;-77
2021/04/01 00:05:02;;;;;;;25.42;16.95;;;;;;;14.35;27.40;101298.28;4961095;28;98951;-75
2021/04/01 00:07:29;;;;;;;23.23;15.93;;;;;;;14.31;27.50;101294.69;4962425;28;97247;-75
2021/04/01 00:09:55;;;;;;;27.08;16.80;;;;;;;14.30;27.70;101295.53;4938222;28;97699;-76
2021/04/01 00:12:23;;;;;;;24.02;16.00;;;;;;;14.22;27.67;101299.00;4945811;28;99677;-76
2021/04/01 00:14:50;;;;;;;26.73;16.73;;;;;;;14.23;27.73;101298.09;4962244;28;98932;-76
2021/04/01 00:17:17;;;;;;;28.00;17.77;;;;;;;14.20;27.94;101295.38;4979377;28;97620;-75
2021/04/01 00:19:44;;;;;;;27.20;16.17;;;;;;;14.17;27.90;101284.66;4961952;28;97123;-75
2021/04/01 00:22:10;;;;;;;22.50;16.08;;;;;;;14.11;27.96;101291.72;4961558;28;99250;-75
2021/04/01 00:24:37;;;;;;;24.33;17.70;;;;;;;14.12;28.06;101282.78;4960733;28;98674;-74
2021/04/01 00:27:06;;;;;;;24.88;17.02;;;;;;;14.12;28.00;101289.91;4960994;28;99369;-75
2021/04/01 00:29:33;;;;;;;27.10;17.92;;;;;;;14.12;28.01;101282.78;4962690;28;98111;-76
2021/04/01 00:32:00;;;;;;;25.27;17.58;;;;;;;14.10;28.12;101281.88;4963182;28;100877;-77
2021/04/01 00:34:27;;;;;;;28.15;18.08;;;;;;;14.08;27.93;101288.97;4980010;28;97518;-74
2021/04/01 00:36:54;;;;;;;25.45;17.60;;;;;;;14.06;27.94;101281.81;4945556;28;99121;-74
2021/04/01 00:39:21;;;;;;;25.27;17.75;;;;;;;14.03;28.15;101277.31;4961842;28;98127;-75
2021/04/01 00:41:48;;;;;;;31.02;18.27;;;;;;;14.00;28.16;101271.94;4944402;28;100963;-74
2021/04/01 00:44:17;;;;;;;26.67;17.55;;;;;;;13.97;28.27;101271.84;4963009;28;99682;-75
2021/04/01 00:46:47;;;;;;;29.27;18.90;;;;;;;13.96;28.46;101278.09;4961957;28;97458;-76
2021/04/01 00:49:15;;;;;;;26.92;18.50;;;;;;;13.94;28.31;101270.91;4979983;28;97868;-75
2021/04/01 00:51:42;;;;;;;26.55;18.48;;;;;;;13.93;28.27;101270.00;4960456;28;98750;-76
2021/04/01 00:54:09;;;;;;;29.17;18.60;;;;;;;13.96;28.21;101270.06;4960701;28;98090;-75
2021/04/01 00:56:37;;;;;;;28.45;17.75;;;;;;;13.96;28.32;101263.81;4978295;28;97604;-74
2021/04/01 00:59:04;;;;;;;27.17;18.45;;;;;;;13.93;28.40;101259.31;4942154;28;97961;-73
2021/04/01 01:01:45;;;;;;;25.80;18.23;;;;;;;13.85;28.59;101260.06;4978304;28;97542;-73
2021/04/01 01:04:13;;;;;;;25.40;17.17;;;;;;;13.83;28.65;101261.81;4979204;28;97964;-75
2021/04/01 01:06:40;;;;;;;31.05;19.38;;;;;;;13.83;28.47;101252.03;4961885;28;97466;-74
2021/04/01 01:09:27;;;;;;;30.60;18.30;;;;;;;13.79;28.57;101255.53;4960080;28;96898;-74
2021/04/01 01:11:54;;;;;;;30.23;19.42;;;;;;;13.78;28.56;101258.16;4977566;28;97728;-74
2021/04/01 01:14:21;;;;;;;31.95;20.13;;;;;;;13.72;28.52;101253.59;4978641;28;97659;-74
2021/04/01 01:16:48;;;;;;;30.65;20.40;;;;;;;13.72;28.58;101255.38;4957575;28;98137;-75
2021/04/01 01:19:17;;;;;;;28.63;20.15;;;;;;;13.72;28.50;101250.94;4961168;28;97841;-75
2021/04/01 01:21:44;;;;;;;31.55;20.60;;;;;;;13.65;28.58;101251.72;4944710;28;98727;-75
2021/04/01 01:24:14;;;;;;;29.55;20.60;;;;;;;13.61;28.66;101249.84;4977281;28;96998;-76
2021/04/01 01:26:41;;;;;;;29.13;19.77;;;;;;;13.60;28.61;101245.41;4961768;28;97347;-76
2021/04/01 01:29:08;;;;;;;26.80;19.27;;;;;;;13.59;28.58;101240.00;4943639;28;97441;-75
2021/04/01 01:31:37;;;;;;;32.13;20.25;;;;;;;13.59;28.76;101240.00;4943850;28;99970;-75
2021/04/01 01:34:04;;;;;;;26.65;19.98;;;;;;;13.55;28.61;101233.69;4943822;28;101325;-75
2021/04/01 01:36:30;;;;;;;29.15;19.25;;;;;;;13.53;28.81;101234.56;4961225;28;97780;-77
2021/04/01 01:38:57;;;;;;;28.58;20.20;;;;;;;13.53;28.83;101232.78;4944553;28;97802;-76
2021/04/01 01:41:25;;;;;;;29.40;20.95;;;;;;;13.52;28.72;101239.00;4959516;28;100014;-75
2021/04/01 01:43:51;;;;;;;29.48;19.30;;;;;;;13.48;28.79;101231.81;4963817;28;100895;-76
2021/04/01 01:46:18;;;;;;;27.65;20.77;;;;;;;13.47;28.81;101235.38;4964188;28;97053;-76
2021/04/01 01:48:45;;;;;;;24.58;19.35;;;;;;;13.45;28.84;101237.13;4965958;28;97735;-75
2021/04/01 01:51:12;;;;;;;29.42;20.15;;;;;;;13.43;28.87;101238.88;4965605;28;98458;-75
2021/04/01 01:53:38;;;;;;;27.92;18.63;;;;;;;13.40;28.95;101238.81;4978099;28;97772;-76
2021/04/01 01:56:06;;;;;;;30.35;18.85;;;;;;;13.41;29.13;101237.94;4975235;28;97074;-76
2021/04/01 01:58:34;;;;;;;31.10;18.42;;;;;;;13.38;29.13;101240.56;4987249;28;96737;-76
2021/04/01 02:01:02;;;;;;;27.33;19.05;;;;;;;13.37;29.23;101236.06;4944464;28;99700;-76
2021/04/01 02:03:29;;;;;;;28.13;20.33;;;;;;;13.34;29.08;101243.16;4978038;28;99372;-75
2021/04/01 02:05:56;;;;;;;31.63;19.42;;;;;;;13.34;29.14;101235.13;4954465;28;98415;-75
2021/04/01 02:08:23;;;;;;;27.98;19.25;;;;;;;13.33;29.24;101241.38;4962870;28;97158;-75
2021/04/01 02:10:51;;;;;;;29.13;20.10;;;;;;;13.34;29.24;101237.81;4980810;28;98254;-75
2021/04/01 02:13:20;;;;;;;35.42;21.55;;;;;;;13.29;29.07;101235.06;4979407;28;97972;-75
2021/04/01 02:15:50;;;;;;;29.42;18.50;;;;;;;13.27;29.24;101225.22;4962908;28;97085;-75
2021/04/01 02:18:20;;;;;;;33.17;19.55;;;;;;;13.29;29.34;101235.06;4963233;28;97922;-75
2021/04/01 02:20:49;;;;;;;30.20;19.10;;;;;;;13.25;29.29;101237.66;4960380;28;100534;-76
2021/04/01 02:23:17;;;;;;;27.65;19.40;;;;;;;13.21;29.43;101239.38;4962489;28;99073;-76
2021/04/01 02:25:45;;;;;;;32.00;20.58;;;;;;;13.22;29.37;101232.25;4979995;28;97827;-76
2021/04/01 02:28:14;;;;;;;30.58;20.67;;;;;;;13.20;29.34;101240.25;4979178;28;97158;-75
2021/04/01 02:30:44;;;;;;;29.00;19.15;;;;;;;13.18;29.67;101233.97;4945045;28;98389;-75
2021/04/01 02:33:12;;;;;;;32.25;19.75;;;;;;;13.19;29.64;101238.44;4981633;28;97619;-76
2021/04/01 02:35:39;;;;;;;30.77;21.13;;;;;;;13.17;29.67;101234.84;4995022;28;97837;-76
2021/04/01 02:38:07;;;;;;;33.97;20.65;;;;;;;13.16;29.59;101233.06;4945077;28;97826;-75
2021/04/01 02:40:35;;;;;;;33.00;19.75;;;;;;;13.18;29.44;101231.31;4979806;28;98000;-76
2021/04/01 02:43:02;;;;;;;28.10;20.17;;;;;;;13.17;29.76;101227.72;4982060;28;97267;-75
2021/04/01 02:45:29;;;;;;;27.23;19.50;;;;;;;13.15;29.81;101229.47;4981368;28;97299;-75
2021/04/01 02:47:55;;;;;;;28.77;19.98;;;;;;;13.10;29.62;101228.50;4980278;28;96791;-76
2021/04/01 02:50:23;;;;;;;27.48;18.63;;;;;;;13.09;29.88;101223.13;4967424;28;99286;-75
2021/04/01 02:52:50;;;;;;;26.10;19.00;;;;;;;13.09;29.67;101216.00;4946742;28;99817;-76
2021/04/01 02:55:17;;;;;;;29.73;18.88;;;;;;;13.09;29.73;101225.81;4962936;28;98684;-76
2021/04/01 02:57:44;;;;;;;24.95;18.65;;;;;;;13.08;29.69;101218.63;4963602;28;97983;-75
2021/04/01 03:00:14;;;;;;;29.27;21.05;;;;;;;13.09;29.66;101223.13;4960106;28;101071;-75
2021/04/01 03:02:44;;;;;;;32.22;19.98;;;;;;;13.09;29.69;101221.34;4962569;28;99571;-75
2021/04/01 03:05:12;;;;;;;26.23;18.13;;;;;;;13.05;29.82;101224.84;4960940;28;98198;-76
2021/04/01 03:07:40;;;;;;;29.88;18.83;;;;;;;13.05;29.72;101223.94;4979593;28;97240;-75
2021/04/01 03:10:10;;;;;;;26.15;18.77;;;;;;;13.02;29.95;101216.75;4960717;28;100744;-76
2021/04/01 03:12:37;;;;;;;27.88;20.08;;;;;;;13.01;29.89;101217.66;4962952;28;99773;-76
2021/04/01 03:15:07;;;;;;;30.50;19.30;;;;;;;13.02;29.84;101218.56;4949531;28;97939;-76
2021/04/01 03:17:33;;;;;;;36.08;19.50;;;;;;;13.02;29.85;101214.09;4993267;28;98301;-76
2021/04/01 03:20:01;;;;;;;24.75;18.40;;;;;;;13.03;29.77;101209.66;4977300;28;99071;-75
2021/04/01 03:22:48;;;;;;;27.35;19.58;;;;;;;13.00;29.82;101210.47;4994198;28;98004;-75
2021/04/01 03:25:15;;;;;;;29.75;19.33;;;;;;;13.02;29.66;101211.41;4946229;28;97700;-75
2021/04/01 03:27:42;;;;;;;30.63;19.05;;;;;;;13.02;29.81;101210.53;4980958;28;97335;-75
2021/04/01 03:30:12;;;;;;;28.80;19.00;;;;;;;13.00;29.72;101207.81;4980003;28;99037;-75
2021/04/01 03:32:40;;;;;;;28.52;20.08;;;;;;;13.01;29.73;101206.03;4961950;28;98654;-75
2021/04/01 03:35:09;;;;;;;23.38;18.25;;;;;;;12.95;29.82;101201.47;4946205;28;97772;-74
2021/04/01 03:37:36;;;;;;;30.85;19.45;;;;;;;12.96;29.83;101207.72;4961815;28;97593;-74
2021/04/01 03:40:05;;;;;;;30.33;19.25;;;;;;;12.96;29.73;101211.28;4944447;28;99827;-74
2021/04/01 03:42:33;;;;;;;31.75;19.65;;;;;;;12.97;29.84;101210.41;4946864;28;99322;-74
2021/04/01 03:44:59;;;;;;;29.00;18.52;;;;;;;12.95;29.81;101208.56;4966584;28;97657;-75
2021/04/01 03:47:27;;;;;;;25.80;18.73;;;;;;;12.95;29.87;101206.81;4981026;28;97848;-75
2021/04/01 03:49:54;;;;;;;31.88;20.65;;;;;;;12.96;29.94;101202.38;4980082;28;99285;-75
2021/04/01 03:52:21;;;;;;;29.35;18.92;;;;;;;12.99;29.93;101202.41;4980940;28;98543;-75
2021/04/01 03:54:51;;;;;;;30.60;20.13;;;;;;;12.98;29.96;101203.31;4964152;28;97336;-75
2021/04/01 03:57:19;;;;;;;29.48;18.38;;;;;;;12.97;29.79;101209.50;4945654;28;98072;-75
2021/04/01 03:59:49;;;;;;;32.22;19.50;;;;;;;12.95;29.85;101204.13;4961661;28;99547;-76
2021/04/01 04:02:31;;;;;;;28.52;18.40;;;;;;;12.95;29.93;101201.47;4968808;28;99646;-77
2021/04/01 04:05:08;;;;;;;25.83;17.35;;;;;;;12.94;30.18;101201.44;4958012;28;97724;-76
2021/04/01 04:08:06;;;;;;;26.65;18.63;;;;;;;12.90;30.18;101204.91;4944426;28;97768;-75
2021/04/01 04:10:45;;;;;;;26.00;18.63;;;;;;;12.87;30.28;101192.44;4961202;28;99903;-77
2021/04/01 04:13:22;;;;;;;29.70;18.30;;;;;;;12.88;30.14;101196.88;4980830;28;98988;-75
2021/04/01 04:15:50;;;;;;;28.77;18.75;;;;;;;12.91;30.15;101193.38;4979143;28;97337;-76
2021/04/01 04:18:17;;;;;;;29.73;18.55;;;;;;;12.92;30.29;101197.84;4961557;28;97421;-75
2021/04/01 04:20:44;;;;;;;27.15;18.23;;;;;;;12.90;30.34;101195.16;4960485;28;99743;-75
2021/04/01 04:23:13;;;;;;;30.88;17.98;;;;;;;12.91;30.43;101193.38;4961887;28;99049;-75
2021/04/01 04:25:40;;;;;;;26.85;18.92;;;;;;;12.94;30.39;101189.00;4958697;28;98980;-75
2021/04/01 04:28:15;;;;;;;30.10;19.25;;;;;;;12.94;30.43;101197.00;4960454;28;97697;-75
2021/04/01 04:30:43;;;;;;;31.23;18.10;;;;;;;12.97;30.62;101190.78;4977229;28;98402;-75
2021/04/01 04:33:10;;;;;;;27.85;17.80;;;;;;;12.95;30.40;101184.53;4975897;28;98856;-75
2021/04/01 04:35:37;;;;;;;27.48;17.55;;;;;;;12.94;30.40;101189.00;4990719;28;99219;-75
2021/04/01 04:38:04;;;;;;;23.33;15.98;;;;;;;12.90;30.50;101184.47;4976346;28;97337;-76
2021/04/01 04:40:31;;;;;;;30.20;18.15;;;;;;;12.94;30.44;101188.09;4942328;28;99697;-74
2021/04/01 04:42:58;;;;;;;27.35;18.33;;;;;;;13.01;30.53;101190.03;4959538;28;99492;-74
2021/04/01 04:45:25;;;;;;;26.35;18.20;;;;;;;13.00;30.44;101182.88;4946298;28;97567;-75
2021/04/01 04:47:53;;;;;;;28.58;17.50;;;;;;;12.98;30.74;101185.47;4973751;28;97994;-76
2021/04/01 04:50:20;;;;;;;26.55;17.30;;;;;;;12.99;30.64;101176.63;4980226;28;97723;-75
2021/04/01 04:52:46;;;;;;;26.33;17.92;;;;;;;12.96;30.69;101183.66;4981411;28;97371;-75
2021/04/01 04:55:13;;;;;;;27.15;17.95;;;;;;;12.96;30.64;101186.34;4964080;28;98138;-75
2021/04/01 04:57:46;;;;;;;27.35;17.67;;;;;;;12.98;30.55;101189.94;4963019;28;97358;-75
2021/04/01 05:00:46;;;;;;;26.52;17.67;;;;;;;12.99;30.59;101189.06;4977444;28;98140;-76
2021/04/01 05:06:03;;;;;;;25.95;17.17;;;;;;;13.02;30.69;101178.47;4964846;28;97641;-75
2021/04/01 05:08:30;;;;;;;29.92;17.27;;;;;;;13.03;30.69;101180.25;4945591;28;96967;-75
2021/04/01 05:10:57;;;;;;;25.77;17.88;;;;;;;13.01;30.70;101182.91;4980522;28;97726;-76
2021/04/01 05:13:24;;;;;;;24.65;17.42;;;;;;;13.00;30.73;101185.56;4963020;28;100755;-75
2021/04/01 05:16:09;;;;;;;27.73;17.85;;;;;;;13.03;30.48;101190.94;4978052;28;97093;-75
2021/04/01 05:18:37;;;;;;;28.83;18.25;;;;;;;13.02;30.69;101198.06;4947050;28;97354;-76
2021/04/01 05:21:06;;;;;;;25.27;18.17;;;;;;;13.01;30.62;101195.38;4945692;28;100898;-75
2021/04/01 05:23:36;;;;;;;27.20;17.45;;;;;;;13.02;30.75;101199.84;4960918;28;99667;-75
2021/04/01 05:26:38;;;;;;;27.00;17.30;;;;;;;13.02;30.74;101190.03;4960899;28;97173;-76
2021/04/01 05:29:07;;;;;;;24.52;16.95;;;;;;;13.07;30.64;101190.13;4960738;28;97406;-76
2021/04/01 05:31:34;;;;;;;33.50;17.90;;;;;;;13.12;30.91;101185.75;4960244;28;96933;-76
2021/04/01 05:34:03;;;;;;;27.60;17.35;;;;;;;13.16;30.62;101187.63;4942609;28;98515;-75
2021/04/01 05:36:32;;;;;;;30.27;17.90;;;;;;;13.17;30.53;101192.06;4979587;28;97791;-76
2021/04/01 05:39:00;;;;;;;30.38;16.40;;;;;;;13.22;30.46;101193.06;4944765;28;96944;-75
2021/04/01 05:41:29;;;;;;;35.33;17.08;;;;;;;13.26;30.37;101191.34;4961058;28;100651;-75
2021/04/01 05:44:05;;;;;;;24.10;16.02;;;;;;;13.30;30.53;101194.09;4944654;28;100350;-75
2021/04/01 05:46:37;;;;;;;27.83;16.40;;;;;;;13.32;30.60;101195.00;4962553;28;98647;-75
2021/04/01 05:49:21;;;;;;;29.48;18.48;;;;;;;13.32;30.69;101191.44;4960569;28;98488;-76
2021/04/01 05:57:43;;;;;;;29.45;18.13;;;;;;;13.27;30.80;101199.38;4961998;28;97781;-74
2021/04/01 06:03:15;;;;;;;34.13;22.02;;;;;;;13.32;31.14;101203.03;4944394;28;98808;-74
2021/04/01 06:05:44;;;;;;;34.60;18.55;;;;;;;13.34;30.71;101205.72;4962002;28;99705;-75
2021/04/01 06:08:14;;;;;;;39.30;20.90;;;;;;;13.38;30.93;101204.91;4952449;28;98295;-75
2021/04/01 06:10:42;;;;;;;27.17;17.77;;;;;;;13.41;30.85;101204.94;4959673;28;98508;-75
2021/04/01 06:13:10;;;;;;;30.73;18.02;;;;;;;13.46;30.89;101209.50;4978389;28;98538;-75
2021/04/01 06:15:37;;;;;;;26.92;15.88;;;;;;;13.49;30.82;101214.91;4968924;28;99573;-75
2021/04/01 06:18:10;;;;;;;30.45;17.67;;;;;;;13.53;31.01;101208.72;4978312;28;97930;-75
2021/04/01 06:20:38;;;;;;;29.33;16.42;;;;;;;13.59;30.82;101210.59;4961983;28;97140;-75
2021/04/01 06:23:06;;;;;;;28.75;17.73;;;;;;;13.56;30.94;101215.91;4971774;28;99561;-75
2021/04/01 06:25:35;;;;;;;34.03;17.27;;;;;;;13.58;30.94;101217.72;4979697;28;97544;-75
2021/04/01 06:28:05;;;;;;;29.58;17.40;;;;;;;13.62;30.89;101213.31;4978445;28;97219;-75
2021/04/01 06:30:44;;;;;;;27.10;17.73;;;;;;;13.66;31.26;101209.84;4959030;28;98225;-75
2021/04/01 06:33:13;;;;;;;29.40;18.33;;;;;;;13.70;30.83;101209.88;4978335;28;98712;-74
2021/04/01 06:35:42;;;;;;;28.10;17.15;;;;;;;13.74;30.83;101208.16;4961125;28;98696;-75
2021/04/01 06:38:23;;;;;;;37.42;17.58;;;;;;;13.76;30.75;101217.09;4979522;28;98450;-76
2021/04/01 06:40:55;;;;;;;29.70;17.42;;;;;;;13.83;30.85;101217.25;4962815;28;97715;-75
2021/04/01 06:43:45;;;;;;;33.30;19.13;;;;;;;13.91;31.42;101217.38;4950921;28;98506;-74
2021/04/01 06:46:12;;;;;;;38.17;17.30;;;;;;;13.92;30.85;101212.03;4956151;28;100696;-75
2021/04/01 06:51:29;;;;;;;29.90;17.73;;;;;;;14.02;30.45;101230.00;4941436;28;97910;-75
2021/04/01 06:54:06;;;;;;;28.23;17.92;;;;;;;14.09;30.73;101223.88;4979716;28;97719;-74
2021/04/01 06:56:59;;;;;;;31.95;17.83;;;;;;;14.15;30.36;101218.59;4963610;28;100371;-75
2021/04/01 06:59:39;;;;;;;34.05;17.05;;;;;;;14.22;30.31;101211.56;4978383;28;98118;-75
2021/04/01 07:02:20;;;;;;;34.70;18.65;;;;;;;14.31;30.08;101208.09;4962599;28;97256;-75
2021/04/01 07:04:50;;;;;;;37.20;19.90;;;;;;;14.38;30.00;101209.97;4961587;28;99305;-79
2021/04/01 07:07:18;;;;;;;37.55;17.77;;;;;;;14.48;30.09;101203.84;4962708;28;100671;-75
2021/04/01 07:10:06;;;;;;;29.50;16.30;;;;;;;14.62;30.11;101216.56;4947570;28;97545;-75
2021/04/01 07:12:35;;;;;;;27.98;16.02;;;;;;;14.68;29.73;101216.59;4981767;28;97700;-74
2021/04/01 07:15:06;;;;;;;34.63;17.95;;;;;;;14.75;29.41;101228.31;4973646;28;99279;-74
2021/04/01 07:17:40;;;;;;;33.53;16.75;;;;;;;14.73;29.53;101224.72;4948176;28;98913;-73
2021/04/01 07:20:28;;;;;;;38.88;17.17;;;;;;;14.79;29.17;101217.63;4975329;28;96928;-74
2021/04/01 07:45:46;;;;;;;34.13;17.33;;;;;;;15.51;28.11;101204.03;4976990;28;97287;-72
2021/04/01 07:48:14;;;;;;;35.08;17.35;;;;;;;15.57;27.96;101204.09;4948083;28;99446;-73
2021/04/01 07:50:44;;;;;;;37.28;17.02;;;;;;;15.65;27.81;101209.53;4953231;28;99427;-74
2021/04/01 07:53:12;;;;;;;38.55;17.42;;;;;;;15.67;27.80;101214.00;4956788;28;97991;-74
2021/04/01 07:56:07;;;;;;;38.97;17.77;;;;;;;15.70;28.12;101207.75;4963341;28;97714;-74
2021/04/01 08:01:34;;;;;;;39.22;18.13;;;;;;;15.78;27.66;101197.97;4962179;28;99144;-73
2021/04/01 08:04:03;;;;;;;38.22;20.50;;;;;;;15.86;27.80;101196.22;4948115;28;97414;-75
2021/04/01 08:06:32;;;;;;;37.70;18.83;;;;;;;15.93;27.61;101187.31;4962129;28;97387;-72
2021/04/01 08:09:02;;;;;;;37.17;18.65;;;;;;;16.06;27.75;101195.50;4976938;28;98744;-72
2021/04/01 08:11:31;;;;;;;30.80;17.85;;;;;;;16.11;27.27;101192.81;4959677;28;99269;-73
2021/04/01 08:14:07;;;;;;;38.45;19.48;;;;;;;16.16;27.40;101193.75;4961915;28;98136;-71
2021/04/01 08:16:38;;;;;;;35.45;17.98;;;;;;;16.26;27.13;101192.00;4979917;28;96733;-72
2021/04/01 08:19:07;;;;;;;43.45;20.13;;;;;;;16.33;27.34;101194.72;4947006;28;98354;-74
2021/04/01 08:21:53;;;;;;;39.70;19.80;;;;;;;16.40;27.07;101199.22;4977965;28;98688;-73
2021/04/01 08:24:45;;;;;;;35.10;18.55;;;;;;;16.43;27.04;101196.56;4958932;28;98139;-74
2021/04/01 08:27:43;;;;;;;34.38;17.40;;;;;;;16.50;27.06;101198.38;4943087;28;97780;-73
2021/04/01 08:33:54;;;;;;;36.10;18.50;;;;;;;16.63;26.79;101194.84;4957823;28;97412;-72
2021/04/01 08:36:46;;;;;;;41.83;18.67;;;;;;;16.71;26.90;101208.31;4948011;28;97114;-74
2021/04/01 08:39:35;;;;;;;40.13;18.75;;;;;;;16.75;26.87;101207.44;4965737;28;97073;-73
2021/04/01 08:42:50;;;;;;;40.92;20.50;;;;;;;16.80;26.22;101206.53;4971923;28;98525;-73
2021/04/01 08:45:47;;;;;;;41.35;21.17;;;;;;;16.84;26.74;101204.75;4939857;28;97716;-73
2021/04/01 08:48:49;;;;;;;43.67;21.00;;;;;;;16.87;26.30;101205.66;4958317;28;97440;-74
2021/04/01 08:51:39;;;;;;;41.63;19.45;;;;;;;16.88;26.16;101198.50;4960015;28;97614;-73
2021/04/01 08:54:13;;;;;;;45.28;20.58;;;;;;;16.96;26.62;101199.44;4943187;28;99031;-72
2021/04/01 08:56:46;;;;;;;44.33;20.10;;;;;;;17.00;26.47;101198.50;4943841;28;99283;-72
2021/04/01 08:59:23;;;;;;;39.88;20.17;;;;;;;17.03;26.19;101198.53;4942971;28;96906;-73
2021/04/01 09:01:54;;;;;;;39.97;20.80;;;;;;;16.99;26.35;101197.63;4959562;28;97356;-73
2021/04/01 09:04:23;;;;;;;41.05;20.75;;;;;;;17.02;26.23;101188.66;4959495;28;99291;-74
2021/04/01 09:06:52;;;;;;;43.35;21.55;;;;;;;17.03;26.06;101169.88;4960390;28;99639;-72
2021/04/01 09:09:24;;;;;;;44.22;19.88;;;;;;;17.04;26.12;101168.03;4977231;28;98026;-72
2021/04/01 09:11:55;;;;;;;40.55;19.13;;;;;;;17.06;25.85;101177.03;4959990;28;97385;-73
2021/04/01 09:14:25;;;;;;;45.10;21.05;;;;;;;17.12;25.98;101194.94;4975884;28;98161;-72
2021/04/01 09:17:08;;;;;;;34.97;19.23;;;;;;;17.20;25.40;101203.94;4959238;28;98870;-72
2021/04/01 09:19:36;;;;;;;45.28;23.05;;;;;;;17.13;25.63;101207.53;4960306;28;97546;-73
2021/04/01 09:22:15;;;;;;;45.92;21.55;;;;;;;17.18;25.40;101205.72;4977864;28;97480;-72
2021/04/01 09:24:42;;;;;;;41.95;19.77;;;;;;;17.18;25.79;101179.72;4977093;28;97880;-73
2021/04/01 09:27:13;;;;;;;41.28;20.15;;;;;;;17.26;25.74;101163.56;4975465;28;98239;-73
2021/04/01 09:29:40;;;;;;;41.63;20.40;;;;;;;17.36;25.76;101151.91;4948121;28;97252;-73
2021/04/01 09:32:09;;;;;;;43.08;20.85;;;;;;;17.43;25.24;101149.25;4977828;28;97904;-73
2021/04/01 09:34:37;;;;;;;44.47;21.40;;;;;;;17.46;25.37;101146.56;4958843;28;99837;-73
2021/04/01 09:37:11;;;;;;;45.10;21.23;;;;;;;17.56;25.21;101160.91;4960636;28;99860;-72
2021/04/01 09:39:38;;;;;;;41.28;20.17;;;;;;;17.61;25.13;101188.69;4976375;28;96979;-73
2021/04/01 09:42:08;;;;;;;47.22;24.20;;;;;;;17.65;25.16;101198.56;4977754;28;97618;-73
2021/04/01 09:44:35;;;;;;;41.35;21.63;;;;;;;17.60;25.14;101187.78;4959355;28;101043;-73
2021/04/01 09:47:08;;;;;;;46.25;22.25;;;;;;;17.59;25.19;101188.72;4942116;28;99484;-73
2021/04/01 09:49:47;;;;;;;46.60;22.33;;;;;;;17.57;24.90;101185.13;4977004;28;97376;-74
2021/04/01 09:52:14;;;;;;;47.92;23.02;;;;;;;17.52;25.33;101181.53;4958770;28;96947;-72
2021/04/01 09:54:46;;;;;;;47.20;22.05;;;;;;;17.47;25.11;101183.34;4943275;28;101261;-72
2021/04/01 09:57:14;;;;;;;53.92;23.55;;;;;;;17.40;24.99;101180.66;4958371;28;100527;-73
2021/04/01 09:59:47;;;;;;;46.55;22.00;;;;;;;17.39;24.86;101170.78;4977123;28;97226;-73
2021/04/01 10:02:20;;;;;;;51.75;23.38;;;;;;;17.38;24.73;101158.22;4958778;28;97460;-72
2021/04/01 10:04:47;;;;;;;49.03;23.38;;;;;;;17.36;25.16;101158.22;4943931;28;99425;-72
2021/04/01 10:07:15;;;;;;;50.80;23.83;;;;;;;17.40;24.89;101148.38;4977438;28;97744;-73
2021/04/01 10:09:52;;;;;;;52.58;24.15;;;;;;;17.49;24.31;101145.66;4957781;28;97908;-74
2021/04/01 10:12:20;;;;;;;52.55;23.98;;;;;;;17.51;24.94;101142.06;4943609;28;97396;-71
2021/04/01 10:14:49;;;;;;;50.65;22.85;;;;;;;17.58;24.76;101142.97;4942840;28;99296;-73
2021/04/01 10:17:20;;;;;;;48.67;22.48;;;;;;;17.65;24.50;101124.09;4943741;28;98722;-72
2021/04/01 10:19:49;;;;;;;50.70;22.70;;;;;;;17.77;24.25;101125.84;4960462;28;97645;-72
2021/04/01 10:22:21;;;;;;;53.83;22.75;;;;;;;17.81;23.62;101125.84;4963264;28;97840;-72
2021/04/01 10:25:10;;;;;;;49.88;22.98;;;;;;;17.89;23.15;101136.59;4962732;28;98594;-72
2021/04/01 10:27:40;;;;;;;52.08;24.15;;;;;;;17.93;23.80;101141.94;4962858;28;99362;-73
2021/04/01 10:30:09;;;;;;;45.97;21.90;;;;;;;18.00;23.54;101135.63;4962472;28;97191;-71
2021/04/01 10:32:41;;;;;;;45.20;22.38;;;;;;;18.22;23.16;101132.91;4981904;28;97322;-72
2021/04/01 10:35:11;;;;;;;50.22;21.33;;;;;;;18.33;23.25;101136.44;4979965;28;98535;-73
2021/04/01 10:37:38;;;;;;;49.67;22.92;;;;;;;18.52;23.22;101132.72;4962275;28;99262;-73
2021/04/01 10:40:07;;;;;;;51.83;25.38;;;;;;;18.62;22.89;101129.09;4978766;28;96844;-72
2021/04/01 10:42:34;;;;;;;52.42;22.52;;;;;;;18.71;23.08;101129.97;4962437;28;97079;-72
2021/04/01 10:45:04;;;;;;;52.97;23.67;;;;;;;18.82;22.92;101127.19;4978706;28;97381;-72
2021/04/01 10:47:51;;;;;;;50.80;24.70;;;;;;;18.84;21.70;101133.47;4961635;28;99256;-72
2021/04/01 10:50:18;;;;;;;52.75;23.65;;;;;;;18.87;22.72;101136.13;4962454;28;97765;-72
2021/04/01 10:52:45;;;;;;;49.47;23.10;;;;;;;18.95;22.48;101129.75;4979301;28;97712;-72
2021/04/01 10:55:13;;;;;;;54.15;24.38;;;;;;;18.94;22.56;101138.78;4980584;28;98200;-73
2021/04/01 10:57:40;;;;;;;51.55;24.25;;;;;;;18.96;22.29;101141.47;4963041;28;100416;-73
2021/04/01 11:00:11;;;;;;;53.72;25.23;;;;;;;19.01;22.42;101147.69;4963678;28;96766;-72
2021/04/01 11:02:40;;;;;;;52.40;23.83;;;;;;;19.00;22.40;101143.22;4962692;28;97202;-73
2021/04/01 11:05:14;;;;;;;57.13;23.42;;;;;;;18.98;22.30;101139.66;4977310;28;99089;-73
2021/04/01 11:07:46;;;;;;;55.85;25.10;;;;;;;18.91;22.62;101143.31;4944822;28;100394;-73
2021/04/01 11:10:19;;;;;;;47.08;22.75;;;;;;;18.88;22.32;101146.00;4977181;28;97508;-72
2021/04/01 11:12:50;;;;;;;47.25;22.85;;;;;;;18.87;22.21;101146.91;4962053;28;98205;-73
2021/04/01 11:15:18;;;;;;;47.50;22.88;;;;;;;18.86;22.78;101145.16;4978467;28;97436;-73
2021/04/01 11:17:51;;;;;;;49.97;22.77;;;;;;;18.92;22.33;101143.28;4961559;28;100132;-73
2021/04/01 11:20:19;;;;;;;50.08;22.15;;;;;;;18.94;22.41;101145.97;4943368;28;97801;-73
2021/04/01 11:23:00;;;;;;;55.63;24.38;;;;;;;19.06;21.57;101145.88;4961580;28;97323;-73
2021/04/01 11:25:27;;;;;;;46.40;23.08;;;;;;;19.12;22.05;101148.50;4958759;28;99859;-73
2021/04/01 11:27:55;;;;;;;53.00;22.98;;;;;;;19.18;22.40;101140.38;4977485;28;97844;-74
2021/04/01 11:30:22;;;;;;;51.78;24.45;;;;;;;19.30;22.07;101139.38;4977364;28;97447;-72
2021/04/01 11:32:51;;;;;;;57.17;24.35;;;;;;;19.34;22.25;101128.56;4977193;28;97841;-73
2021/04/01 11:35:22;;;;;;;52.75;25.88;;;;;;;19.44;22.24;101140.19;4979333;28;97193;-72
2021/04/01 11:37:53;;;;;;;60.30;24.77;;;;;;;19.55;22.22;101146.38;4961506;28;99263;-71
2021/04/01 11:40:21;;;;;;;55.92;26.48;;;;;;;19.56;22.07;101140.03;4961342;28;96902;-72
2021/04/01 11:42:55;;;;;;;56.97;27.63;;;;;;;19.63;21.06;101141.75;4962008;28;97030;-73
2021/04/01 11:45:32;;;;;;;58.97;26.67;;;;;;;19.66;21.21;101142.63;4976418;28;97742;-73
2021/04/01 11:47:59;;;;;;;56.05;27.52;;;;;;;19.73;21.35;101151.56;4976800;28;98652;-74
2021/04/01 11:50:29;;;;;;;62.95;27.85;;;;;;;19.79;21.38;101140.72;4963265;28;97223;-73
2021/04/01 11:52:57;;;;;;;64.55;28.80;;;;;;;19.83;21.43;101145.16;4964212;28;96897;-72
2021/04/01 11:55:24;;;;;;;64.28;30.75;;;;;;;19.76;21.67;101133.53;4970297;28;99049;-71
2021/04/01 11:57:52;;;;;;;62.70;30.05;;;;;;;19.71;21.52;101135.41;4959055;28;98658;-73
2021/04/01 12:00:21;;;;;;;64.07;28.23;;;;;;;19.66;21.89;101142.63;4959413;28;97041;-71
2021/04/01 12:03:08;;;;;;;62.45;28.85;;;;;;;19.71;21.56;101135.41;4955079;28;97103;-72
2021/04/01 12:05:38;;;;;;;66.65;30.23;;;;;;;19.66;21.42;101134.53;4954598;28;100883;-74
2021/04/01 12:08:06;;;;;;;64.30;29.27;;;;;;;19.61;21.78;101139.09;4990582;28;99420;-72
2021/04/01 12:10:35;;;;;;;67.95;30.88;;;;;;;19.63;21.35;101142.66;4957968;28;97751;-72